sensor_id;sensor_type;location;lat;lon;timestamp;temperature;humidity
31129;DHT22;17777;48.770;8.944;2024-02-21T00:00:57;12.00;52.30
31129;DHT22;17777;48.770;8.944;2024-02-21T00:03:23;12.10;52.40
31129;DHT22;17777;48.770;8.944;2024-02-21T00:05:49;12.00;52.30
31129;DHT22;17777;48.770;8.944;2024-02-21T00:08:14;12.10;52.50
31129;DHT22;17777;48.770;8.944;2024-02-21T00:10:40;12.10;52.50
31129;DHT22;17777;48.770;8.944;2024-02-21T00:13:06;12.10;52.50
31129;DHT22;17777;48.770;8.944;2024-02-21T00:15:32;12.10;52.50
31129;DHT22;17777;48.770;8.944;2024-02-21T00:17:58;12.10;52.40
31129;DHT22;17777;48.770;8.944;2024-02-21T00:20:24;12.20;52.40
31129;DHT22;17777;48.770;8.944;2024-02-21T00:22:51;12.20;52.40
31129;DHT22;17777;48.770;8.944;2024-02-21T00:25:17;12.20;52.40
31129;DHT22;17777;48.770;8.944;2024-02-21T00:27:43;12.20;52.40
31129;DHT22;17777;48.770;8.944;2024-02-21T00:30:09;12.20;52.30
31129;DHT22;17777;48.770;8.944;2024-02-21T00:32:36;12.20;52.30
31129;DHT22;17777;48.770;8.944;2024-02-21T00:35:02;12.20;52.40
31129;DHT22;17777;48.770;8.944;2024-02-21T00:37:28;12.20;52.40
31129;DHT22;17777;48.770;8.944;2024-02-21T00:39:54;12.30;52.40
31129;DHT22;17777;48.770;8.944;2024-02-21T00:42:20;12.30;52.40
31129;DHT22;17777;48.770;8.944;2024-02-21T00:44:46;12.30;52.40
31129;DHT22;17777;48.770;8.944;2024-02-21T00:47:12;12.30;52.30
31129;DHT22;17777;48.770;8.944;2024-02-21T00:49:38;12.30;52.30
31129;DHT22;17777;48.770;8.944;2024-02-21T00:52:04;12.30;52.20
31129;DHT22;17777;48.770;8.944;2024-02-21T00:54:30;12.30;52.20
31129;DHT22;17777;48.770;8.944;2024-02-21T00:56:56;12.30;52.20
31129;DHT22;17777;48.770;8.944;2024-02-21T00:59:21;12.30;52.20
31129;DHT22;17777;48.770;8.944;2024-02-21T01:01:47;12.30;52.30
31129;DHT22;17777;48.770;8.944;2024-02-21T01:04:13;12.30;52.40
31129;DHT22;17777;48.770;8.944;2024-02-21T01:06:39;12.30;52.40
31129;DHT22;17777;48.770;8.944;2024-02-21T01:09:08;12.30;52.40
31129;DHT22;17777;48.770;8.944;2024-02-21T01:11:34;12.40;52.30
31129;DHT22;17777;48.770;8.944;2024-02-21T01:13:59;12.40;52.30
31129;DHT22;17777;48.770;8.944;2024-02-21T01:16:26;12.30;52.20
31129;DHT22;17777;48.770;8.944;2024-02-21T01:18:52;12.30;52.10
31129;DHT22;17777;48.770;8.944;2024-02-21T01:21:17;12.30;52.10
31129;DHT22;17777;48.770;8.944;2024-02-21T01:23:43;12.30;52.10
31129;DHT22;17777;48.770;8.944;2024-02-21T01:26:09;12.30;52.10
31129;DHT22;17777;48.770;8.944;2024-02-21T01:28:38;12.30;52.00
31129;DHT22;17777;48.770;8.944;2024-02-21T01:31:04;12.20;52.00
31129;DHT22;17777;48.770;8.944;2024-02-21T01:33:30;12.20;52.70
31129;DHT22;17777;48.770;8.944;2024-02-21T01:36:04;12.10;52.10
31129;DHT22;17777;48.770;8.944;2024-02-21T01:38:32;12.10;52.80
31129;DHT22;17777;48.770;8.944;2024-02-21T01:40:58;12.10;52.20
31129;DHT22;17777;48.770;8.944;2024-02-21T01:43:24;12.10;52.30
31129;DHT22;17777;48.770;8.944;2024-02-21T01:45:55;12.10;52.30
31129;DHT22;17777;48.770;8.944;2024-02-21T01:48:24;12.10;52.30
31129;DHT22;17777;48.770;8.944;2024-02-21T01:50:51;12.00;52.30
31129;DHT22;17777;48.770;8.944;2024-02-21T01:53:38;12.00;52.20
31129;DHT22;17777;48.770;8.944;2024-02-21T01:56:07;12.00;52.40
31129;DHT22;17777;48.770;8.944;2024-02-21T01:58:36;12.00;52.30
31129;DHT22;17777;48.770;8.944;2024-02-21T02:01:03;11.90;52.20
31129;DHT22;17777;48.770;8.944;2024-02-21T02:03:29;11.90;52.20
31129;DHT22;17777;48.770;8.944;2024-02-21T02:05:55;11.80;52.20
31129;DHT22;17777;48.770;8.944;2024-02-21T02:08:21;11.80;52.30
31129;DHT22;17777;48.770;8.944;2024-02-21T02:10:48;11.80;52.40
31129;DHT22;17777;48.770;8.944;2024-02-21T02:13:14;11.80;52.50
31129;DHT22;17777;48.770;8.944;2024-02-21T02:15:50;11.80;52.60
31129;DHT22;17777;48.770;8.944;2024-02-21T02:18:17;11.70;52.70
31129;DHT22;17777;48.770;8.944;2024-02-21T02:20:45;11.80;52.60
31129;DHT22;17777;48.770;8.944;2024-02-21T02:23:16;11.70;52.50
31129;DHT22;17777;48.770;8.944;2024-02-21T02:25:52;11.70;52.50
31129;DHT22;17777;48.770;8.944;2024-02-21T02:28:19;11.70;52.60
31129;DHT22;17777;48.770;8.944;2024-02-21T02:30:46;11.70;52.60
31129;DHT22;17777;48.770;8.944;2024-02-21T02:33:11;11.70;52.60
31129;DHT22;17777;48.770;8.944;2024-02-21T02:35:38;11.70;52.60
31129;DHT22;17777;48.770;8.944;2024-02-21T02:38:04;11.70;52.70
31129;DHT22;17777;48.770;8.944;2024-02-21T02:40:33;11.70;52.70
31129;DHT22;17777;48.770;8.944;2024-02-21T02:42:59;11.70;52.80
31129;DHT22;17777;48.770;8.944;2024-02-21T02:45:25;11.70;52.80
31129;DHT22;17777;48.770;8.944;2024-02-21T02:47:55;11.70;52.90
31129;DHT22;17777;48.770;8.944;2024-02-21T02:50:26;11.70;53.10
31129;DHT22;17777;48.770;8.944;2024-02-21T02:52:53;11.80;53.20
31129;DHT22;17777;48.770;8.944;2024-02-21T02:55:19;11.80;53.20
31129;DHT22;17777;48.770;8.944;2024-02-21T02:57:45;11.80;53.20
31129;DHT22;17777;48.770;8.944;2024-02-21T03:00:13;11.90;53.30
31129;DHT22;17777;48.770;8.944;2024-02-21T03:02:42;11.90;53.40
31129;DHT22;17777;48.770;8.944;2024-02-21T03:05:14;11.90;53.30
31129;DHT22;17777;48.770;8.944;2024-02-21T03:07:40;11.90;53.40
31129;DHT22;17777;48.770;8.944;2024-02-21T03:10:07;12.00;53.30
31129;DHT22;17777;48.770;8.944;2024-02-21T03:12:33;12.00;53.20
31129;DHT22;17777;48.770;8.944;2024-02-21T03:14:58;12.00;53.10
31129;DHT22;17777;48.770;8.944;2024-02-21T03:17:25;12.00;53.20
31129;DHT22;17777;48.770;8.944;2024-02-21T03:19:53;12.00;53.90
31129;DHT22;17777;48.770;8.944;2024-02-21T03:22:21;12.00;53.30
31129;DHT22;17777;48.770;8.944;2024-02-21T03:24:47;12.00;53.30
31129;DHT22;17777;48.770;8.944;2024-02-21T03:27:13;12.00;53.30
31129;DHT22;17777;48.770;8.944;2024-02-21T03:29:39;12.00;53.20
31129;DHT22;17777;48.770;8.944;2024-02-21T03:32:05;12.00;53.10
31129;DHT22;17777;48.770;8.944;2024-02-21T03:34:31;12.00;53.00
31129;DHT22;17777;48.770;8.944;2024-02-21T03:36:57;12.10;53.20
31129;DHT22;17777;48.770;8.944;2024-02-21T03:39:22;12.00;53.20
31129;DHT22;17777;48.770;8.944;2024-02-21T03:41:48;12.10;53.30
31129;DHT22;17777;48.770;8.944;2024-02-21T03:44:14;12.10;53.30
31129;DHT22;17777;48.770;8.944;2024-02-21T03:46:40;12.10;53.30
31129;DHT22;17777;48.770;8.944;2024-02-21T03:49:06;12.10;53.30
31129;DHT22;17777;48.770;8.944;2024-02-21T03:51:32;12.10;53.30
31129;DHT22;17777;48.770;8.944;2024-02-21T03:53:58;12.10;53.30
31129;DHT22;17777;48.770;8.944;2024-02-21T03:56:24;12.10;53.30
31129;DHT22;17777;48.770;8.944;2024-02-21T03:58:50;12.10;53.20
31129;DHT22;17777;48.770;8.944;2024-02-21T04:01:16;12.10;53.10
31129;DHT22;17777;48.770;8.944;2024-02-21T04:03:43;12.10;53.10
31129;DHT22;17777;48.770;8.944;2024-02-21T04:06:09;12.10;53.20
31129;DHT22;17777;48.770;8.944;2024-02-21T04:08:35;12.10;53.20
31129;DHT22;17777;48.770;8.944;2024-02-21T04:11:01;12.10;53.20
31129;DHT22;17777;48.770;8.944;2024-02-21T04:13:27;12.10;53.20
31129;DHT22;17777;48.770;8.944;2024-02-21T04:15:53;12.10;53.10
31129;DHT22;17777;48.770;8.944;2024-02-21T04:18:19;12.10;53.10
31129;DHT22;17777;48.770;8.944;2024-02-21T04:20:45;12.10;53.00
31129;DHT22;17777;48.770;8.944;2024-02-21T04:23:11;12.10;52.90
31129;DHT22;17777;48.770;8.944;2024-02-21T04:25:37;12.10;52.90
31129;DHT22;17777;48.770;8.944;2024-02-21T04:28:03;12.00;52.90
31129;DHT22;17777;48.770;8.944;2024-02-21T04:30:29;12.00;53.00
31129;DHT22;17777;48.770;8.944;2024-02-21T04:32:54;12.00;53.10
31129;DHT22;17777;48.770;8.944;2024-02-21T04:35:21;12.00;53.20
31129;DHT22;17777;48.770;8.944;2024-02-21T04:37:46;12.00;53.10
31129;DHT22;17777;48.770;8.944;2024-02-21T04:40:12;12.00;53.10
31129;DHT22;17777;48.770;8.944;2024-02-21T04:42:39;12.00;53.00
31129;DHT22;17777;48.770;8.944;2024-02-21T04:45:06;12.00;53.10
31129;DHT22;17777;48.770;8.944;2024-02-21T04:47:32;12.10;53.10
31129;DHT22;17777;48.770;8.944;2024-02-21T04:49:57;12.10;53.00
31129;DHT22;17777;48.770;8.944;2024-02-21T04:52:23;12.10;52.90
31129;DHT22;17777;48.770;8.944;2024-02-21T04:54:49;12.00;52.90
31129;DHT22;17777;48.770;8.944;2024-02-21T04:57:15;12.00;52.90
31129;DHT22;17777;48.770;8.944;2024-02-21T04:59:45;12.00;53.00
31129;DHT22;17777;48.770;8.944;2024-02-21T05:02:12;12.00;53.10
31129;DHT22;17777;48.770;8.944;2024-02-21T05:04:38;12.00;53.00
31129;DHT22;17777;48.770;8.944;2024-02-21T05:07:05;12.00;53.00
31129;DHT22;17777;48.770;8.944;2024-02-21T05:09:31;12.00;53.00
31129;DHT22;17777;48.770;8.944;2024-02-21T05:11:57;12.00;52.90
31129;DHT22;17777;48.770;8.944;2024-02-21T05:14:25;12.00;52.90
31129;DHT22;17777;48.770;8.944;2024-02-21T05:16:52;11.90;52.70
31129;DHT22;17777;48.770;8.944;2024-02-21T05:19:18;11.90;52.70
31129;DHT22;17777;48.770;8.944;2024-02-21T05:21:45;11.90;52.80
31129;DHT22;17777;48.770;8.944;2024-02-21T05:24:11;11.90;52.90
31129;DHT22;17777;48.770;8.944;2024-02-21T05:26:37;11.90;52.90
31129;DHT22;17777;48.770;8.944;2024-02-21T05:29:03;11.80;52.90
31129;DHT22;17777;48.770;8.944;2024-02-21T05:34:20;11.80;52.80
31129;DHT22;17777;48.770;8.944;2024-02-21T05:36:47;11.80;52.70
31129;DHT22;17777;48.770;8.944;2024-02-21T05:39:14;11.70;52.60
31129;DHT22;17777;48.770;8.944;2024-02-21T05:41:40;11.70;52.70
31129;DHT22;17777;48.770;8.944;2024-02-21T05:44:06;11.70;52.70
31129;DHT22;17777;48.770;8.944;2024-02-21T05:46:32;11.60;52.70
31129;DHT22;17777;48.770;8.944;2024-02-21T05:48:57;11.60;52.80
31129;DHT22;17777;48.770;8.944;2024-02-21T05:51:23;11.70;52.80
31129;DHT22;17777;48.770;8.944;2024-02-21T05:53:49;11.60;52.70
31129;DHT22;17777;48.770;8.944;2024-02-21T05:56:15;11.60;52.70
31129;DHT22;17777;48.770;8.944;2024-02-21T05:58:42;11.60;52.80
31129;DHT22;17777;48.770;8.944;2024-02-21T06:01:08;11.50;52.80
31129;DHT22;17777;48.770;8.944;2024-02-21T06:03:34;11.50;53.00
31129;DHT22;17777;48.770;8.944;2024-02-21T06:06:00;11.50;53.00
31129;DHT22;17777;48.770;8.944;2024-02-21T06:08:26;11.60;53.00
31129;DHT22;17777;48.770;8.944;2024-02-21T06:10:52;11.50;53.10
31129;DHT22;17777;48.770;8.944;2024-02-21T06:13:20;11.60;53.10
31129;DHT22;17777;48.770;8.944;2024-02-21T06:15:47;11.60;53.00
31129;DHT22;17777;48.770;8.944;2024-02-21T06:18:13;11.60;52.90
31129;DHT22;17777;48.770;8.944;2024-02-21T06:20:39;11.60;52.80
31129;DHT22;17777;48.770;8.944;2024-02-21T06:23:06;11.60;52.80
31129;DHT22;17777;48.770;8.944;2024-02-21T06:25:32;11.60;52.70
31129;DHT22;17777;48.770;8.944;2024-02-21T06:27:58;11.60;52.70
31129;DHT22;17777;48.770;8.944;2024-02-21T06:30:23;11.60;52.70
31129;DHT22;17777;48.770;8.944;2024-02-21T06:32:49;11.50;53.30
31129;DHT22;17777;48.770;8.944;2024-02-21T06:35:15;11.50;52.70
31129;DHT22;17777;48.770;8.944;2024-02-21T06:37:42;11.50;52.70
31129;DHT22;17777;48.770;8.944;2024-02-21T06:40:08;11.50;52.70
31129;DHT22;17777;48.770;8.944;2024-02-21T06:42:34;11.50;52.70
31129;DHT22;17777;48.770;8.944;2024-02-21T06:45:00;11.40;53.30
31129;DHT22;17777;48.770;8.944;2024-02-21T06:47:26;11.40;52.80
31129;DHT22;17777;48.770;8.944;2024-02-21T06:49:52;11.40;52.80
31129;DHT22;17777;48.770;8.944;2024-02-21T06:52:18;11.40;52.80
31129;DHT22;17777;48.770;8.944;2024-02-21T06:54:46;11.40;52.80
31129;DHT22;17777;48.770;8.944;2024-02-21T06:57:13;11.40;52.80
31129;DHT22;17777;48.770;8.944;2024-02-21T06:59:40;11.30;52.70
31129;DHT22;17777;48.770;8.944;2024-02-21T07:02:06;11.30;52.70
31129;DHT22;17777;48.770;8.944;2024-02-21T07:04:32;11.30;52.70
31129;DHT22;17777;48.770;8.944;2024-02-21T07:06:58;11.30;52.70
31129;DHT22;17777;48.770;8.944;2024-02-21T07:09:23;11.30;52.70
31129;DHT22;17777;48.770;8.944;2024-02-21T07:11:49;11.20;52.70
31129;DHT22;17777;48.770;8.944;2024-02-21T07:14:15;11.20;52.80
31129;DHT22;17777;48.770;8.944;2024-02-21T07:16:41;11.20;52.90
31129;DHT22;17777;48.770;8.944;2024-02-21T07:19:07;11.20;52.90
31129;DHT22;17777;48.770;8.944;2024-02-21T07:21:33;11.20;52.90
31129;DHT22;17777;48.770;8.944;2024-02-21T07:23:59;11.20;52.90
31129;DHT22;17777;48.770;8.944;2024-02-21T07:26:24;11.20;52.90
31129;DHT22;17777;48.770;8.944;2024-02-21T07:28:51;11.20;52.90
31129;DHT22;17777;48.770;8.944;2024-02-21T07:31:17;11.20;53.10
31129;DHT22;17777;48.770;8.944;2024-02-21T07:33:42;11.20;53.10
31129;DHT22;17777;48.770;8.944;2024-02-21T07:36:10;11.30;53.20
31129;DHT22;17777;48.770;8.944;2024-02-21T07:38:37;11.30;53.30
31129;DHT22;17777;48.770;8.944;2024-02-21T07:41:03;11.30;53.30
31129;DHT22;17777;48.770;8.944;2024-02-21T07:43:29;11.30;53.20
31129;DHT22;17777;48.770;8.944;2024-02-21T07:45:56;11.40;53.30
31129;DHT22;17777;48.770;8.944;2024-02-21T07:48:22;11.30;53.30
31129;DHT22;17777;48.770;8.944;2024-02-21T07:50:52;11.30;53.30
31129;DHT22;17777;48.770;8.944;2024-02-21T07:53:19;11.40;53.40
31129;DHT22;17777;48.770;8.944;2024-02-21T07:55:45;11.40;53.40
31129;DHT22;17777;48.770;8.944;2024-02-21T07:58:11;11.40;53.50
31129;DHT22;17777;48.770;8.944;2024-02-21T08:00:37;11.40;53.50
31129;DHT22;17777;48.770;8.944;2024-02-21T08:03:03;11.40;53.60
31129;DHT22;17777;48.770;8.944;2024-02-21T08:05:28;11.50;53.60
31129;DHT22;17777;48.770;8.944;2024-02-21T08:07:55;11.50;53.50
31129;DHT22;17777;48.770;8.944;2024-02-21T08:10:21;11.50;53.50
31129;DHT22;17777;48.770;8.944;2024-02-21T08:12:47;11.60;53.60
31129;DHT22;17777;48.770;8.944;2024-02-21T08:15:13;11.60;53.60
31129;DHT22;17777;48.770;8.944;2024-02-21T08:17:38;11.60;53.50
31129;DHT22;17777;48.770;8.944;2024-02-21T08:20:05;11.70;53.50
31129;DHT22;17777;48.770;8.944;2024-02-21T08:22:31;11.70;53.50
31129;DHT22;17777;48.770;8.944;2024-02-21T08:24:57;11.70;53.40
31129;DHT22;17777;48.770;8.944;2024-02-21T08:27:22;11.70;53.30
31129;DHT22;17777;48.770;8.944;2024-02-21T08:29:48;11.80;53.30
31129;DHT22;17777;48.770;8.944;2024-02-21T08:32:14;11.80;53.40
31129;DHT22;17777;48.770;8.944;2024-02-21T08:34:40;11.90;53.40
31129;DHT22;17777;48.770;8.944;2024-02-21T08:37:06;11.90;53.30
31129;DHT22;17777;48.770;8.944;2024-02-21T08:39:31;12.00;53.40
31129;DHT22;17777;48.770;8.944;2024-02-21T08:41:57;12.00;53.30
31129;DHT22;17777;48.770;8.944;2024-02-21T08:44:23;12.00;53.30
31129;DHT22;17777;48.770;8.944;2024-02-21T08:46:52;12.10;53.30
31129;DHT22;17777;48.770;8.944;2024-02-21T08:49:18;12.10;53.30
31129;DHT22;17777;48.770;8.944;2024-02-21T08:51:44;12.10;53.30
31129;DHT22;17777;48.770;8.944;2024-02-21T08:54:09;12.20;53.40
31129;DHT22;17777;48.770;8.944;2024-02-21T08:56:36;12.20;53.40
31129;DHT22;17777;48.770;8.944;2024-02-21T08:59:02;12.20;53.30
31129;DHT22;17777;48.770;8.944;2024-02-21T09:01:27;12.30;53.30
31129;DHT22;17777;48.770;8.944;2024-02-21T09:03:54;12.30;53.40
31129;DHT22;17777;48.770;8.944;2024-02-21T09:06:22;12.40;53.40
31129;DHT22;17777;48.770;8.944;2024-02-21T09:08:48;12.40;53.30
31129;DHT22;17777;48.770;8.944;2024-02-21T09:11:14;12.40;53.20
31129;DHT22;17777;48.770;8.944;2024-02-21T09:13:41;12.50;53.20
31129;DHT22;17777;48.770;8.944;2024-02-21T09:16:07;12.50;53.10
31129;DHT22;17777;48.770;8.944;2024-02-21T09:18:34;12.50;53.10
31129;DHT22;17777;48.770;8.944;2024-02-21T09:21:00;12.50;53.10
31129;DHT22;17777;48.770;8.944;2024-02-21T09:23:26;12.60;53.10
31129;DHT22;17777;48.770;8.944;2024-02-21T09:25:52;12.60;53.00
31129;DHT22;17777;48.770;8.944;2024-02-21T09:28:18;12.60;53.10
31129;DHT22;17777;48.770;8.944;2024-02-21T09:30:44;12.60;53.10
31129;DHT22;17777;48.770;8.944;2024-02-21T09:33:11;12.60;53.20
31129;DHT22;17777;48.770;8.944;2024-02-21T09:35:36;12.70;53.20
31129;DHT22;17777;48.770;8.944;2024-02-21T09:38:02;12.80;53.20
31129;DHT22;17777;48.770;8.944;2024-02-21T09:40:28;12.80;53.20
31129;DHT22;17777;48.770;8.944;2024-02-21T09:43:17;12.80;53.10
31129;DHT22;17777;48.770;8.944;2024-02-21T09:45:46;12.90;53.10
31129;DHT22;17777;48.770;8.944;2024-02-21T09:51:05;13.10;53.00
31129;DHT22;17777;48.770;8.944;2024-02-21T09:53:34;13.10;53.00
31129;DHT22;17777;48.770;8.944;2024-02-21T09:56:04;13.20;53.10
31129;DHT22;17777;48.770;8.944;2024-02-21T09:58:32;13.20;53.00
31129;DHT22;17777;48.770;8.944;2024-02-21T10:00:59;13.40;53.10
31129;DHT22;17777;48.770;8.944;2024-02-21T10:03:26;13.40;52.90
31129;DHT22;17777;48.770;8.944;2024-02-21T10:05:52;13.40;52.90
31129;DHT22;17777;48.770;8.944;2024-02-21T10:08:19;13.50;52.90
31129;DHT22;17777;48.770;8.944;2024-02-21T10:10:46;13.60;52.60
31129;DHT22;17777;48.770;8.944;2024-02-21T10:13:30;13.70;52.60
31129;DHT22;17777;48.770;8.944;2024-02-21T10:16:06;13.70;52.20
31129;DHT22;17777;48.770;8.944;2024-02-21T10:18:34;13.80;52.10
31129;DHT22;17777;48.770;8.944;2024-02-21T10:21:06;13.90;52.30
31129;DHT22;17777;48.770;8.944;2024-02-21T10:23:45;14.00;52.20
31129;DHT22;17777;48.770;8.944;2024-02-21T10:26:13;14.00;51.60
31129;DHT22;17777;48.770;8.944;2024-02-21T10:28:40;14.10;51.80
31129;DHT22;17777;48.770;8.944;2024-02-21T10:31:30;14.20;51.90
31129;DHT22;17777;48.770;8.944;2024-02-21T10:34:00;14.20;51.60
31129;DHT22;17777;48.770;8.944;2024-02-21T10:36:30;14.30;51.70
31129;DHT22;17777;48.770;8.944;2024-02-21T10:38:56;14.40;51.80
31129;DHT22;17777;48.770;8.944;2024-02-21T10:41:23;14.40;51.70
31129;DHT22;17777;48.770;8.944;2024-02-21T10:43:55;14.50;51.60
31129;DHT22;17777;48.770;8.944;2024-02-21T10:46:23;14.50;51.30
31129;DHT22;17777;48.770;8.944;2024-02-21T10:49:10;14.60;51.50
31129;DHT22;17777;48.770;8.944;2024-02-21T10:51:43;14.60;51.10
31129;DHT22;17777;48.770;8.944;2024-02-21T10:56:57;14.80;51.30
31129;DHT22;17777;48.770;8.944;2024-02-21T10:59:24;14.80;50.90
31129;DHT22;17777;48.770;8.944;2024-02-21T11:01:51;14.90;51.00
31129;DHT22;17777;48.770;8.944;2024-02-21T11:04:18;14.90;51.00
31129;DHT22;17777;48.770;8.944;2024-02-21T11:06:44;14.90;50.70
31129;DHT22;17777;48.770;8.944;2024-02-21T11:09:10;14.90;50.70
31129;DHT22;17777;48.770;8.944;2024-02-21T11:11:41;15.00;50.70
31129;DHT22;17777;48.770;8.944;2024-02-21T11:14:18;15.00;50.50
31129;DHT22;17777;48.770;8.944;2024-02-21T11:16:46;15.10;50.40
31129;DHT22;17777;48.770;8.944;2024-02-21T11:21:45;15.20;50.40
31129;DHT22;17777;48.770;8.944;2024-02-21T11:24:10;15.20;50.50
31129;DHT22;17777;48.770;8.944;2024-02-21T11:26:40;15.20;50.30
31129;DHT22;17777;48.770;8.944;2024-02-21T11:29:09;15.30;49.80
31129;DHT22;17777;48.770;8.944;2024-02-21T11:31:45;15.30;50.00
31129;DHT22;17777;48.770;8.944;2024-02-21T11:34:12;15.40;49.30
31129;DHT22;17777;48.770;8.944;2024-02-21T11:36:48;15.40;49.70
31129;DHT22;17777;48.770;8.944;2024-02-21T11:39:33;15.40;49.30
31129;DHT22;17777;48.770;8.944;2024-02-21T11:42:07;15.50;49.10
31129;DHT22;17777;48.770;8.944;2024-02-21T11:44:37;15.50;49.20
31129;DHT22;17777;48.770;8.944;2024-02-21T11:47:04;15.60;49.40
31129;DHT22;17777;48.770;8.944;2024-02-21T11:49:30;15.70;49.40
31129;DHT22;17777;48.770;8.944;2024-02-21T11:52:00;15.70;49.10
31129;DHT22;17777;48.770;8.944;2024-02-21T11:54:32;15.80;49.00
31129;DHT22;17777;48.770;8.944;2024-02-21T11:57:00;15.80;49.10
31129;DHT22;17777;48.770;8.944;2024-02-21T11:59:26;15.80;48.90
31129;DHT22;17777;48.770;8.944;2024-02-21T12:01:56;15.90;48.60
31129;DHT22;17777;48.770;8.944;2024-02-21T12:04:24;15.90;48.40
31129;DHT22;17777;48.770;8.944;2024-02-21T12:06:52;16.00;48.40
31129;DHT22;17777;48.770;8.944;2024-02-21T12:09:19;16.00;48.20
31129;DHT22;17777;48.770;8.944;2024-02-21T12:11:45;16.10;48.20
31129;DHT22;17777;48.770;8.944;2024-02-21T12:14:16;16.10;47.90
31129;DHT22;17777;48.770;8.944;2024-02-21T12:16:42;16.20;47.10
31129;DHT22;17777;48.770;8.944;2024-02-21T12:19:15;16.20;47.50
31129;DHT22;17777;48.770;8.944;2024-02-21T12:21:42;16.30;47.00
31129;DHT22;17777;48.770;8.944;2024-02-21T12:24:27;16.30;47.20
31129;DHT22;17777;48.770;8.944;2024-02-21T12:26:54;16.40;46.60
31129;DHT22;17777;48.770;8.944;2024-02-21T12:29:22;16.50;47.60
31129;DHT22;17777;48.770;8.944;2024-02-21T12:31:50;16.50;47.70
31129;DHT22;17777;48.770;8.944;2024-02-21T12:34:17;16.50;47.80
31129;DHT22;17777;48.770;8.944;2024-02-21T12:36:44;16.60;47.50
31129;DHT22;17777;48.770;8.944;2024-02-21T12:39:10;16.60;47.20
31129;DHT22;17777;48.770;8.944;2024-02-21T12:41:37;16.70;47.10
31129;DHT22;17777;48.770;8.944;2024-02-21T12:44:09;16.70;46.80
31129;DHT22;17777;48.770;8.944;2024-02-21T12:46:37;16.70;46.50
31129;DHT22;17777;48.770;8.944;2024-02-21T12:49:04;16.80;46.90
31129;DHT22;17777;48.770;8.944;2024-02-21T12:51:31;16.90;46.60
31129;DHT22;17777;48.770;8.944;2024-02-21T12:53:57;16.90;46.30
31129;DHT22;17777;48.770;8.944;2024-02-21T12:56:24;16.90;46.20
31129;DHT22;17777;48.770;8.944;2024-02-21T12:58:54;16.90;46.40
31129;DHT22;17777;48.770;8.944;2024-02-21T13:01:19;17.00;46.60
31129;DHT22;17777;48.770;8.944;2024-02-21T13:03:46;17.00;46.80
31129;DHT22;17777;48.770;8.944;2024-02-21T13:06:12;17.00;46.20
31129;DHT22;17777;48.770;8.944;2024-02-21T13:08:38;17.00;46.00
31129;DHT22;17777;48.770;8.944;2024-02-21T13:11:05;17.00;45.90
31129;DHT22;17777;48.770;8.944;2024-02-21T13:13:31;17.10;45.80
31129;DHT22;17777;48.770;8.944;2024-02-21T13:15:58;17.10;45.60
31129;DHT22;17777;48.770;8.944;2024-02-21T13:18:24;17.10;45.20
31129;DHT22;17777;48.770;8.944;2024-02-21T13:20:50;17.10;45.50
31129;DHT22;17777;48.770;8.944;2024-02-21T13:23:16;17.10;44.90
31129;DHT22;17777;48.770;8.944;2024-02-21T13:25:42;17.20;44.90
31129;DHT22;17777;48.770;8.944;2024-02-21T13:28:11;17.10;44.80
31129;DHT22;17777;48.770;8.944;2024-02-21T13:30:36;17.20;44.70
31129;DHT22;17777;48.770;8.944;2024-02-21T13:33:02;17.20;44.50
31129;DHT22;17777;48.770;8.944;2024-02-21T13:35:29;17.20;44.30
31129;DHT22;17777;48.770;8.944;2024-02-21T13:37:54;17.20;44.00
31129;DHT22;17777;48.770;8.944;2024-02-21T13:40:20;17.20;43.60
31129;DHT22;17777;48.770;8.944;2024-02-21T13:42:46;17.20;43.50
31129;DHT22;17777;48.770;8.944;2024-02-21T13:45:12;17.20;43.50
31129;DHT22;17777;48.770;8.944;2024-02-21T13:47:40;17.20;43.50
31129;DHT22;17777;48.770;8.944;2024-02-21T13:50:06;17.30;43.40
31129;DHT22;17777;48.770;8.944;2024-02-21T13:52:36;17.30;43.30
31129;DHT22;17777;48.770;8.944;2024-02-21T13:55:03;17.30;43.20
31129;DHT22;17777;48.770;8.944;2024-02-21T13:57:29;17.30;43.10
31129;DHT22;17777;48.770;8.944;2024-02-21T13:59:55;17.30;42.70
31129;DHT22;17777;48.770;8.944;2024-02-21T14:02:21;17.30;42.60
31129;DHT22;17777;48.770;8.944;2024-02-21T14:04:47;17.30;42.30
31129;DHT22;17777;48.770;8.944;2024-02-21T14:07:13;17.30;42.10
31129;DHT22;17777;48.770;8.944;2024-02-21T14:09:39;17.30;42.00
31129;DHT22;17777;48.770;8.944;2024-02-21T14:12:05;17.30;42.00
31129;DHT22;17777;48.770;8.944;2024-02-21T14:14:35;17.30;42.00
31129;DHT22;17777;48.770;8.944;2024-02-21T14:17:02;17.30;41.80
31129;DHT22;17777;48.770;8.944;2024-02-21T14:19:29;17.30;41.60
31129;DHT22;17777;48.770;8.944;2024-02-21T14:21:56;17.30;41.60
31129;DHT22;17777;48.770;8.944;2024-02-21T14:24:23;17.30;41.70
31129;DHT22;17777;48.770;8.944;2024-02-21T14:26:49;17.30;41.60
31129;DHT22;17777;48.770;8.944;2024-02-21T14:29:15;17.30;41.30
31129;DHT22;17777;48.770;8.944;2024-02-21T14:31:40;17.30;41.20
31129;DHT22;17777;48.770;8.944;2024-02-21T14:34:06;17.30;41.30
31129;DHT22;17777;48.770;8.944;2024-02-21T14:36:33;17.30;41.30
31129;DHT22;17777;48.770;8.944;2024-02-21T14:38:59;17.30;41.00
31129;DHT22;17777;48.770;8.944;2024-02-21T14:41:25;17.30;41.00
31129;DHT22;17777;48.770;8.944;2024-02-21T14:43:53;17.40;41.00
31129;DHT22;17777;48.770;8.944;2024-02-21T14:46:18;17.40;41.10
31129;DHT22;17777;48.770;8.944;2024-02-21T14:48:44;17.40;41.00
31129;DHT22;17777;48.770;8.944;2024-02-21T14:51:11;17.40;40.80
31129;DHT22;17777;48.770;8.944;2024-02-21T14:53:36;17.30;40.50
31129;DHT22;17777;48.770;8.944;2024-02-21T14:56:03;17.30;40.40
31129;DHT22;17777;48.770;8.944;2024-02-21T14:58:29;17.30;40.40
31129;DHT22;17777;48.770;8.944;2024-02-21T15:00:56;17.30;40.10
31129;DHT22;17777;48.770;8.944;2024-02-21T15:03:22;17.30;40.10
31129;DHT22;17777;48.770;8.944;2024-02-21T15:05:48;17.30;40.10
31129;DHT22;17777;48.770;8.944;2024-02-21T15:08:14;17.20;40.00
31129;DHT22;17777;48.770;8.944;2024-02-21T15:10:43;17.20;40.10
31129;DHT22;17777;48.770;8.944;2024-02-21T15:13:08;17.20;40.10
31129;DHT22;17777;48.770;8.944;2024-02-21T15:15:34;17.20;40.20
31129;DHT22;17777;48.770;8.944;2024-02-21T15:18:00;17.20;40.40
31129;DHT22;17777;48.770;8.944;2024-02-21T15:20:26;17.20;40.40
31129;DHT22;17777;48.770;8.944;2024-02-21T15:22:53;17.20;40.40
31129;DHT22;17777;48.770;8.944;2024-02-21T15:25:20;17.10;40.30
31129;DHT22;17777;48.770;8.944;2024-02-21T15:27:46;17.10;40.40
31129;DHT22;17777;48.770;8.944;2024-02-21T15:30:13;17.10;40.40
31129;DHT22;17777;48.770;8.944;2024-02-21T15:32:40;17.10;40.10
31129;DHT22;17777;48.770;8.944;2024-02-21T15:35:09;17.10;40.20
31129;DHT22;17777;48.770;8.944;2024-02-21T15:37:39;17.10;40.20
31129;DHT22;17777;48.770;8.944;2024-02-21T15:40:06;17.10;40.20